Time;durP1;ratioP1;P1;durP2;ratioP2;P2;SDS_P1;SDS_P2;PMS_P1;PMS_P2;Temp;Humidity;BMP_temperature;BMP_pressure;BME280_temperature;BME280_humidity;BME280_pressure;Samples;Min_cycle;Max_cycle;Signal;HPM_P1;HPM_P2
2022/01/05 00:00:42;;;;;;;13.68;10.25;;;;;;;1.11;100.00;100280.09;5253813;28;20028;-66
2022/01/05 00:03:12;;;;;;;12.50;7.95;;;;;;;1.14;100.00;100279.66;5235578;28;20051;-60
2022/01/05 00:05:43;;;;;;;13.40;8.88;;;;;;;1.13;100.00;100283.34;5235309;28;20017;-62
2022/01/05 00:08:14;;;;;;;10.13;8.18;;;;;;;1.01;100.00;100286.63;5234735;28;20020;-62
2022/01/05 00:10:44;;;;;;;21.23;8.63;;;;;;;1.14;100.00;100292.97;5235225;28;20400;-64
2022/01/05 00:13:15;;;;;;;11.82;7.15;;;;;;;1.10;100.00;100297.88;5235451;28;20044;-62
2022/01/05 00:15:45;;;;;;;10.18;7.53;;;;;;;1.06;100.00;100291.34;5234940;28;20111;-64
2022/01/05 00:18:16;;;;;;;13.27;7.35;;;;;;;0.89;100.00;100248.41;5253092;28;20146;-62
2022/01/05 00:20:46;;;;;;;9.63;6.50;;;;;;;1.00;100.00;100270.91;5234842;28;20029;-62
2022/01/05 00:23:17;;;;;;;10.02;7.05;;;;;;;1.02;100.00;100280.31;5234880;28;20388;-63
2022/01/05 00:25:47;;;;;;;7.10;5.60;;;;;;;0.86;100.00;100248.84;5235965;28;20044;-63
2022/01/05 00:28:18;;;;;;;6.82;6.18;;;;;;;1.03;100.00;100294.41;5235286;28;20024;-66
2022/01/05 00:30:48;;;;;;;8.30;5.43;;;;;;;0.90;100.00;100276.63;5234705;28;20396;-63
2022/01/05 00:33:19;;;;;;;7.15;5.85;;;;;;;0.88;100.00;100275.19;5233803;28;20020;-63
2022/01/05 00:35:50;;;;;;;8.63;6.30;;;;;;;0.85;100.00;100283.63;5233665;28;20056;-63
2022/01/05 00:38:20;;;;;;;16.85;8.57;;;;;;;0.89;100.00;100298.09;5233310;28;20024;-64
2022/01/05 00:40:50;;;;;;;10.60;8.50;;;;;;;0.86;100.00;100304.69;5234476;28;20032;-63
2022/01/05 00:43:21;;;;;;;9.20;6.40;;;;;;;0.81;100.00;100314.28;5251905;28;20027;-61
2022/01/05 00:45:51;;;;;;;9.65;6.07;;;;;;;0.65;100.00;100300.38;5251596;28;20029;-63
2022/01/05 00:48:22;;;;;;;11.45;7.32;;;;;;;0.48;100.00;100295.69;5234307;28;20020;-62
2022/01/05 00:50:52;;;;;;;5.55;5.13;;;;;;;0.36;100.00;100295.47;5235428;28;20499;-63
2022/01/05 00:53:23;;;;;;;5.55;5.28;;;;;;;0.33;100.00;100317.09;5234952;28;20028;-64
2022/01/05 00:55:53;;;;;;;5.45;5.07;;;;;;;-0.21;100.00;100238.41;5235387;28;20454;-63
2022/01/05 00:58:24;;;;;;;7.38;5.72;;;;;;;0.12;100.00;100301.34;5234851;28;20017;-62
2022/01/05 01:00:54;;;;;;;9.75;6.82;;;;;;;0.05;100.00;100300.53;5252490;28;20415;-63
2022/01/05 01:03:28;;;;;;;6.15;5.53;;;;;;;0.02;100.00;100299.09;5234961;28;20115;-64
2022/01/05 01:06:00;;;;;;;15.23;7.63;;;;;;;-0.05;100.00;100301.75;5234504;28;20039;-64
2022/01/05 01:08:31;;;;;;;6.50;5.95;;;;;;;-0.07;100.00;100311.75;5234422;28;20366;-63
2022/01/05 01:11:01;;;;;;;5.78;5.35;;;;;;;-0.10;100.00;100304.19;5234362;28;20036;-64
2022/01/05 01:13:32;;;;;;;22.25;7.03;;;;;;;-0.01;100.00;100318.09;5252125;28;20020;-68
2022/01/05 01:16:03;;;;;;;15.50;5.75;;;;;;;-0.05;100.00;100320.31;5252423;28;20044;-64
2022/01/05 01:18:35;;;;;;;7.20;5.97;;;;;;;-0.10;100.00;100320.09;5234498;28;20024;-64
2022/01/05 01:21:07;;;;;;;5.90;5.50;;;;;;;-0.17;100.00;100318.44;5234519;28;20031;-64
2022/01/05 01:23:38;;;;;;;14.13;6.97;;;;;;;-0.18;100.00;100322.09;5234271;28;20021;-63
2022/01/05 01:26:08;;;;;;;9.35;6.50;;;;;;;-0.20;100.00;100322.31;5233990;28;20028;-66
2022/01/05 01:28:39;;;;;;;11.00;6.28;;;;;;;-0.24;100.00;100331.66;5234438;28;20035;-64
2022/01/05 01:31:09;;;;;;;6.20;5.63;;;;;;;-0.29;100.00;100328.00;5234279;28;20028;-63
2022/01/05 01:33:40;;;;;;;6.95;5.38;;;;;;;-0.33;100.00;100316.97;5234255;28;20029;-63
2022/01/05 01:36:10;;;;;;;10.60;6.00;;;;;;;-0.36;100.00;100326.13;5234677;28;20020;-64
2022/01/05 01:38:44;;;;;;;12.10;6.72;;;;;;;-0.37;100.00;100328.97;5234268;28;20025;-64
2022/01/05 01:41:15;;;;;;;6.65;6.00;;;;;;;-0.36;100.00;100327.97;5233903;28;20024;-64
2022/01/05 01:43:46;;;;;;;28.65;5.75;;;;;;;-0.88;100.00;100260.41;5233572;28;20024;-64
2022/01/05 01:46:17;;;;;;;5.78;5.32;;;;;;;-0.46;100.00;100330.16;5233739;28;20024;-63
2022/01/05 01:48:48;;;;;;;13.80;5.82;;;;;;;-0.50;100.00;100332.38;5233728;28;20032;-64
2022/01/05 01:51:18;;;;;;;9.50;5.97;;;;;;;-0.45;100.00;100347.72;5232818;28;20144;-64
2022/01/05 01:53:49;;;;;;;8.68;6.90;;;;;;;-0.48;100.00;100353.41;5233284;28;20040;-63
2022/01/05 01:56:20;;;;;;;9.75;6.32;;;;;;;-0.45;100.00;100353.84;5235298;28;20392;-64
2022/01/05 01:58:51;;;;;;;13.77;6.97;;;;;;;-0.58;100.00;100332.56;5234500;28;20102;-62
2022/01/05 02:01:22;;;;;;;10.63;6.57;;;;;;;-0.55;100.00;100340.09;5234694;28;20476;-66
2022/01/05 02:03:52;;;;;;;11.13;5.97;;;;;;;-0.91;100.00;100295.25;5235085;28;20391;-64
2022/01/05 02:06:23;;;;;;;13.23;6.43;;;;;;;-0.86;100.00;100313.22;5233228;28;20059;-64
2022/01/05 02:08:53;;;;;;;6.13;5.72;;;;;;;-0.68;100.00;100346.16;5232765;28;20028;-64
2022/01/05 02:11:25;;;;;;;9.75;6.88;;;;;;;-0.87;100.00;100319.56;5233150;28;20020;-62
2022/01/05 02:13:56;;;;;;;6.90;6.18;;;;;;;-0.85;100.00;100330.75;5233300;28;20186;-64
2022/01/05 02:16:31;;;;;;;16.98;6.18;;;;;;;-0.72;100.00;100341.44;5233021;28;20067;-64
2022/01/05 02:19:01;;;;;;;7.53;6.95;;;;;;;-0.80;100.00;100334.47;5232580;28;20453;-64
2022/01/05 02:21:35;;;;;;;11.82;6.63;;;;;;;-0.71;100.00;100343.91;5232907;28;20115;-64
2022/01/05 02:24:07;;;;;;;9.13;6.30;;;;;;;-0.68;100.00;100355.97;5232590;28;20115;-64
2022/01/05 02:26:38;;;;;;;13.48;5.75;;;;;;;-0.94;100.00;100308.91;5232143;28;20017;-64
2022/01/05 02:29:09;;;;;;;14.10;7.07;;;;;;;-0.66;100.00;100353.09;5249503;28;20035;-63
2022/01/05 02:31:40;;;;;;;7.50;6.72;;;;;;;-0.66;100.00;100350.47;5231703;28;20025;-64
2022/01/05 02:34:10;;;;;;;10.13;7.40;;;;;;;-0.77;100.00;100344.69;5231886;28;20076;-64
2022/01/05 02:36:41;;;;;;;11.73;7.80;;;;;;;-0.78;100.00;100350.16;5231151;28;20517;-64
2022/01/05 02:39:11;;;;;;;9.63;6.57;;;;;;;-0.72;100.00;100366.13;5231032;28;20039;-62
2022/01/05 02:41:42;;;;;;;8.75;7.75;;;;;;;-0.69;100.00;100364.91;5231134;28;20017;-64
2022/01/05 02:44:12;;;;;;;13.23;5.68;;;;;;;-0.75;100.00;100369.16;5231367;28;20520;-64
2022/01/05 02:46:42;;;;;;;6.30;5.85;;;;;;;-0.77;100.00;100365.88;5231086;28;20020;-64
2022/01/05 02:49:13;;;;;;;10.82;7.18;;;;;;;-0.77;100.00;100376.50;5231582;28;20032;-64
2022/01/05 02:51:43;;;;;;;7.15;6.45;;;;;;;-0.79;100.00;100375.03;5231293;28;20036;-64
2022/01/05 02:54:14;;;;;;;13.13;7.22;;;;;;;-0.76;100.00;100369.34;5230376;28;20032;-63
2022/01/05 02:56:44;;;;;;;9.88;7.57;;;;;;;-0.81;100.00;100369.94;5230759;28;20017;-64
2022/01/05 02:59:15;;;;;;;9.32;6.00;;;;;;;-0.82;100.00;100376.25;5230377;28;20385;-63
2022/01/05 03:01:45;;;;;;;12.40;6.38;;;;;;;-0.74;100.00;100377.94;5229593;28;20028;-64
2022/01/05 03:04:16;;;;;;;8.40;5.82;;;;;;;-0.71;100.00;100382.84;5229622;28;20024;-64
2022/01/05 03:06:46;;;;;;;24.70;9.35;;;;;;;-0.70;100.00;100397.75;5230049;28;20017;-69
2022/01/05 03:09:16;;;;;;;10.48;7.93;;;;;;;-0.68;100.00;100404.50;5229632;28;20054;-64
2022/01/05 03:11:47;;;;;;;28.60;8.45;;;;;;;-0.76;100.00;100396.69;5230075;28;20374;-62
2022/01/05 03:14:17;;;;;;;17.10;7.22;;;;;;;-0.82;100.00;100397.44;5230052;28;20503;-63
2022/01/05 03:16:48;;;;;;;6.68;5.60;;;;;;;-0.83;100.00;100395.81;5230168;28;20028;-65
2022/01/05 03:19:19;;;;;;;17.27;7.82;;;;;;;-0.90;100.00;100397.63;5230145;28;20032;-64
2022/01/05 03:21:49;;;;;;;7.35;6.93;;;;;;;-0.85;100.00;100421.69;5230350;28;20426;-64
2022/01/05 03:24:21;;;;;;;6.70;6.18;;;;;;;-0.81;100.00;100416.81;5252247;28;20035;-64
2022/01/05 03:26:51;;;;;;;8.35;5.30;;;;;;;-0.83;100.00;100421.50;5234191;28;20116;-65
2022/01/05 03:29:22;;;;;;;8.55;6.50;;;;;;;-0.97;100.00;100407.34;5233648;28;20115;-67
2022/01/05 03:31:53;;;;;;;7.28;6.35;;;;;;;-0.90;100.00;100421.47;5233683;28;20034;-65
2022/01/05 03:34:23;;;;;;;6.88;6.32;;;;;;;-0.87;100.00;100421.09;5232884;28;20020;-64
2022/01/05 03:36:56;;;;;;;10.35;8.32;;;;;;;-0.89;100.00;100420.47;5233980;28;20020;-65
2022/01/05 03:39:27;;;;;;;13.25;6.30;;;;;;;-0.88;100.00;100422.09;5234419;28;20039;-64
2022/01/05 03:41:57;;;;;;;6.43;5.95;;;;;;;-0.89;100.00;100433.72;5234053;28;20103;-65
2022/01/05 03:44:28;;;;;;;9.65;7.07;;;;;;;-0.89;100.00;100428.41;5233443;28;20039;-64
2022/01/05 03:46:58;;;;;;;14.23;7.15;;;;;;;-0.91;100.00;100437.56;5233760;28;20028;-64
2022/01/05 03:49:29;;;;;;;10.55;6.95;;;;;;;-0.89;100.00;100443.50;5233990;28;20054;-63
2022/01/05 03:52:00;;;;;;;8.50;7.35;;;;;;;-0.80;100.00;100448.44;5233541;28;20400;-66
2022/01/05 03:54:31;;;;;;;11.48;7.20;;;;;;;-0.78;100.00;100446.44;5233315;28;20535;-64
2022/01/05 03:57:01;;;;;;;8.63;6.47;;;;;;;-0.82;100.00;100441.69;5233790;28;20111;-66
2022/01/05 03:59:32;;;;;;;15.13;6.95;;;;;;;-0.75;100.00;100455.84;5233425;28;20025;-63
2022/01/05 04:02:02;;;;;;;9.60;6.38;;;;;;;-0.68;100.00;100464.66;5234119;28;20439;-63
2022/01/05 04:04:33;;;;;;;9.82;8.90;;;;;;;-0.70;100.00;100453.44;5233199;28;20166;-65
2022/01/05 04:07:04;;;;;;;7.07;5.93;;;;;;;-0.74;100.00;100457.47;5233472;28;20048;-66
2022/01/05 04:09:34;;;;;;;10.25;6.88;;;;;;;-0.82;100.00;100449.66;5233253;28;20097;-63
2022/01/05 04:12:05;;;;;;;16.55;7.95;;;;;;;-0.72;100.00;100456.28;5232819;28;20024;-64
2022/01/05 04:14:36;;;;;;;12.90;6.07;;;;;;;-0.76;100.00;100441.75;5232854;28;20382;-65
2022/01/05 04:17:06;;;;;;;11.85;7.40;;;;;;;-0.63;100.00;100461.44;5232944;28;20028;-65
2022/01/05 04:19:37;;;;;;;16.55;6.75;;;;;;;-0.61;100.00;100462.88;5232546;28;20161;-63
2022/01/05 04:22:07;;;;;;;9.85;7.15;;;;;;;-0.64;100.00;100462.44;5233072;28;20028;-65
2022/01/05 04:24:38;;;;;;;12.23;6.88;;;;;;;-0.67;100.00;100466.31;5232628;28;20028;-67
2022/01/05 04:27:08;;;;;;;10.93;7.63;;;;;;;-0.76;100.00;100454.19;5233329;28;20403;-67
2022/01/05 04:29:39;;;;;;;9.13;7.35;;;;;;;-0.78;100.00;100472.94;5233108;28;20392;-64
2022/01/05 04:32:09;;;;;;;8.05;7.32;;;;;;;-0.86;100.00;100475.72;5233127;28;20056;-64
2022/01/05 04:34:40;;;;;;;14.65;7.90;;;;;;;-0.95;100.00;100465.47;5231607;28;20094;-64
2022/01/05 04:37:11;;;;;;;6.82;5.72;;;;;;;-0.88;100.00;100475.13;5233347;28;20082;-65
2022/01/05 04:39:42;;;;;;;12.75;6.05;;;;;;;-1.15;100.00;100454.66;5250648;28;20085;-65
2022/01/05 04:42:12;;;;;;;16.92;9.23;;;;;;;-0.97;100.00;100473.59;5232443;28;20024;-63
2022/01/05 04:44:42;;;;;;;6.35;5.70;;;;;;;-0.97;100.00;100476.25;5231860;28;20020;-68
2022/01/05 04:47:13;;;;;;;6.88;5.22;;;;;;;-1.11;100.00;100456.75;5232126;28;20395;-67
2022/01/05 04:49:43;;;;;;;9.88;6.93;;;;;;;-1.02;100.00;100474.16;5232288;28;20033;-67
2022/01/05 04:52:14;;;;;;;13.95;7.85;;;;;;;-1.03;100.00;100474.34;5232844;28;20033;-65
2022/01/05 04:54:46;;;;;;;8.45;6.18;;;;;;;-0.94;100.00;100494.44;5250122;28;20025;-65
2022/01/05 04:57:17;;;;;;;7.40;6.80;;;;;;;-0.93;100.00;100489.94;5233077;28;20024;-65
2022/01/05 04:59:47;;;;;;;12.10;5.40;;;;;;;-0.85;100.00;100492.44;5233287;28;20115;-65
2022/01/05 05:02:18;;;;;;;10.38;7.07;;;;;;;-0.82;100.00;100482.28;5232605;28;20056;-65
2022/01/05 05:04:48;;;;;;;10.25;5.78;;;;;;;-0.78;100.00;100490.69;5233099;28;20546;-65
2022/01/05 05:07:20;;;;;;;9.32;7.18;;;;;;;-0.85;100.00;100481.84;5233621;28;20017;-67
2022/01/05 05:09:50;;;;;;;8.45;5.85;;;;;;;-0.75;100.00;100496.41;5250484;28;20081;-67
2022/01/05 05:12:20;;;;;;;10.30;6.88;;;;;;;-0.83;100.00;100488.59;5215782;28;20484;-64
2022/01/05 05:14:51;;;;;;;15.98;7.07;;;;;;;-0.87;100.00;100479.41;5230774;28;20024;-66
2022/01/05 05:17:21;;;;;;;8.38;7.75;;;;;;;-0.79;100.00;100492.50;5231948;28;20025;-65
2022/01/05 05:19:52;;;;;;;12.70;6.53;;;;;;;-0.78;100.00;100494.16;5248411;28;20061;-66
2022/01/05 05:22:22;;;;;;;21.63;8.55;;;;;;;-0.72;100.00;100496.03;5231326;28;20143;-64
2022/01/05 05:24:53;;;;;;;14.38;7.72;;;;;;;-0.73;100.00;100494.41;5231152;28;20025;-64
2022/01/05 05:27:23;;;;;;;13.32;7.57;;;;;;;-0.72;100.00;100496.03;5231892;28;20048;-64
2022/01/05 05:29:54;;;;;;;11.27;7.45;;;;;;;-0.71;100.00;100505.63;5231343;28;20021;-64
2022/01/05 05:32:24;;;;;;;8.80;6.43;;;;;;;-0.63;100.00;100517.94;5231703;28;20025;-64
2022/01/05 05:34:55;;;;;;;17.15;7.90;;;;;;;-0.58;100.00;100509.41;5248773;28;20024;-65
2022/01/05 05:37:25;;;;;;;11.35;6.95;;;;;;;-0.44;100.00;100505.84;5231138;28;20021;-64
2022/01/05 05:39:55;;;;;;;7.95;7.18;;;;;;;-0.41;100.00;100494.84;5231501;28;20016;-65
2022/01/05 05:42:26;;;;;;;9.05;6.88;;;;;;;-0.40;100.00;100509.75;5231462;28;20024;-65
2022/01/05 05:44:56;;;;;;;15.77;9.40;;;;;;;-0.40;100.00;100505.28;5230563;28;20023;-64
2022/01/05 05:47:27;;;;;;;15.93;7.07;;;;;;;-0.42;100.00;100506.47;5231565;28;20070;-65
2022/01/05 05:49:57;;;;;;;12.55;7.43;;;;;;;-0.44;100.00;100505.84;5231868;28;20020;-65
2022/01/05 05:52:28;;;;;;;7.43;6.63;;;;;;;-0.40;100.00;100509.75;5231283;28;20219;-64
2022/01/05 05:54:58;;;;;;;16.70;7.40;;;;;;;-0.32;100.00;100509.63;5230227;28;20101;-63
2022/01/05 05:57:28;;;;;;;9.82;6.88;;;;;;;-0.28;100.00;100518.81;5230446;28;20036;-64
2022/01/05 05:59:59;;;;;;;15.95;7.25;;;;;;;-0.23;100.00;100512.91;5230053;28;20024;-64
2022/01/05 06:02:29;;;;;;;11.30;6.10;;;;;;;-0.08;100.00;100522.44;5230573;28;20020;-66
2022/01/05 06:05:00;;;;;;;10.77;7.38;;;;;;;0.00;100.00;100522.25;5230171;28;20022;-65
2022/01/05 06:07:31;;;;;;;10.68;7.03;;;;;;;0.10;100.00;100529.03;5246456;28;20028;-66
2022/01/05 06:10:01;;;;;;;10.63;7.03;;;;;;;0.19;100.00;100539.31;5229894;28;20028;-64
2022/01/05 06:12:32;;;;;;;11.82;8.77;;;;;;;0.25;100.00;100535.06;5228789;28;20101;-64
2022/01/05 06:15:02;;;;;;;10.50;6.60;;;;;;;0.22;100.00;100538.13;5228493;28;20491;-65
2022/01/05 06:17:33;;;;;;;16.55;7.18;;;;;;;0.08;100.00;100531.91;5228971;28;20028;-65
2022/01/05 06:20:05;;;;;;;7.40;6.88;;;;;;;0.17;100.00;100535.22;5228716;28;20369;-64
2022/01/05 06:22:38;;;;;;;10.32;7.03;;;;;;;0.13;100.00;100540.09;5228937;28;20500;-62
2022/01/05 06:25:11;;;;;;;9.88;8.15;;;;;;;0.14;100.00;100540.91;5228566;28;20549;-65
2022/01/05 06:27:41;;;;;;;26.75;9.65;;;;;;;0.17;100.00;100545.84;5228796;28;20024;-65
2022/01/05 06:30:12;;;;;;;10.27;7.07;;;;;;;0.19;100.00;100549.13;5228476;28;20066;-62
2022/01/05 06:32:45;;;;;;;11.27;6.50;;;;;;;0.21;100.00;100547.91;5228551;28;20049;-64
2022/01/05 06:35:18;;;;;;;6.47;5.18;;;;;;;0.19;100.00;100535.84;5228624;28;20020;-65
2022/01/05 06:37:48;;;;;;;9.57;6.47;;;;;;;0.31;100.00;100552.84;5228681;28;20024;-63
2022/01/05 06:40:19;;;;;;;7.93;6.57;;;;;;;0.18;100.00;100528.91;5228815;28;20035;-64
2022/01/05 06:42:49;;;;;;;7.68;7.05;;;;;;;0.43;100.00;100555.78;5228803;28;20024;-64
2022/01/05 06:45:21;;;;;;;25.17;22.70;;;;;;;0.54;100.00;100560.53;5228386;28;20591;-64
2022/01/05 06:47:51;;;;;;;10.85;8.45;;;;;;;0.62;100.00;100571.78;5229032;28;20024;-64
2022/01/05 06:50:21;;;;;;;10.27;6.93;;;;;;;0.50;100.00;100544.16;5229510;28;20024;-64
2022/01/05 06:52:55;;;;;;;11.63;7.38;;;;;;;0.57;100.00;100550.34;5230189;28;20086;-64
2022/01/05 06:55:25;;;;;;;8.70;7.10;;;;;;;0.70;100.00;100567.34;5228855;28;20067;-62
2022/01/05 06:57:56;;;;;;;11.63;8.02;;;;;;;0.73;100.00;100566.94;5231186;28;20508;-64
2022/01/05 07:00:27;;;;;;;12.32;6.97;;;;;;;0.75;100.00;100563.06;5232283;28;20017;-64
2022/01/05 07:02:58;;;;;;;12.18;6.32;;;;;;;0.76;100.00;100572.69;5232702;28;20135;-63
2022/01/05 07:05:29;;;;;;;8.02;5.75;;;;;;;0.76;100.00;100570.03;5233529;28;20033;-64
2022/01/05 07:07:59;;;;;;;20.75;8.50;;;;;;;0.73;100.00;100564.28;5234271;28;20025;-63
2022/01/05 07:10:30;;;;;;;7.15;6.45;;;;;;;0.80;100.00;100581.91;5235325;28;20346;-63
2022/01/05 07:13:00;;;;;;;14.85;6.47;;;;;;;0.72;100.00;100570.63;5253469;28;20022;-62
2022/01/05 07:15:31;;;;;;;8.82;7.25;;;;;;;0.73;100.00;100578.41;5229075;28;20029;-63
2022/01/05 07:18:01;;;;;;;14.25;7.03;;;;;;;0.76;100.00;100582.50;5234380;28;20028;-64
2022/01/05 07:20:32;;;;;;;6.70;5.40;;;;;;;0.74;100.00;100574.72;5234076;28;20195;-63
2022/01/05 07:23:02;;;;;;;9.75;6.93;;;;;;;0.84;100.00;100601.75;5233538;28;20489;-63
2022/01/05 07:25:33;;;;;;;9.65;7.32;;;;;;;0.67;100.00;100580.00;5233588;28;20016;-62
2022/01/05 07:28:03;;;;;;;6.47;5.75;;;;;;;0.72;100.00;100607.81;5234125;28;20480;-63
2022/01/05 07:30:34;;;;;;;12.27;7.15;;;;;;;0.82;100.00;100606.44;5233364;28;20056;-63
2022/01/05 07:33:04;;;;;;;5.97;5.57;;;;;;;0.90;100.00;100622.19;5232842;28;20032;-63
2022/01/05 07:35:35;;;;;;;22.90;6.65;;;;;;;0.74;100.00;100589.84;5232360;28;20020;-63
2022/01/05 07:38:06;;;;;;;14.55;5.90;;;;;;;1.01;100.00;100631.47;5249994;28;20496;-63
2022/01/05 07:40:36;;;;;;;10.77;6.57;;;;;;;1.01;100.00;100628.81;5231535;28;20181;-63
2022/01/05 07:43:07;;;;;;;9.95;6.10;;;;;;;1.11;100.00;100644.38;5231892;28;20115;-63
2022/01/05 07:45:38;;;;;;;12.68;8.18;;;;;;;1.10;100.00;100632.09;5231488;28;20024;-63
2022/01/05 07:48:08;;;;;;;10.15;6.85;;;;;;;1.12;100.00;100638.88;5231665;28;20039;-62
2022/01/05 07:50:39;;;;;;;15.75;7.20;;;;;;;1.14;100.00;100647.47;5231360;28;20043;-62
2022/01/05 07:53:09;;;;;;;14.40;8.38;;;;;;;1.17;100.00;100652.38;5231801;28;20039;-63
2022/01/05 07:55:39;;;;;;;7.25;6.70;;;;;;;1.24;100.00;100660.38;5230551;28;20028;-62
2022/01/05 07:58:10;;;;;;;12.88;8.27;;;;;;;1.26;100.00;100661.81;5231536;28;20333;-63
2022/01/05 08:00:41;;;;;;;16.58;6.53;;;;;;;1.20;100.00;100651.16;5231413;28;20024;-62
2022/01/05 08:03:11;;;;;;;20.92;7.03;;;;;;;1.24;100.00;100649.72;5231156;28;20025;-62
2022/01/05 08:05:42;;;;;;;8.35;7.55;;;;;;;1.39;100.00;100673.53;5230950;28;20182;-63
2022/01/05 08:08:12;;;;;;;9.75;5.80;;;;;;;1.44;100.00;100673.75;5230610;28;20020;-63
2022/01/05 08:10:43;;;;;;;8.43;6.88;;;;;;;1.49;100.00;100680.09;5230973;28;20051;-63
2022/01/05 08:13:13;;;;;;;8.65;7.82;;;;;;;1.54;100.00;100679.50;5230780;28;20042;-63
2022/01/05 08:15:44;;;;;;;8.68;5.63;;;;;;;1.56;100.00;100675.59;5231038;28;20024;-63
2022/01/05 08:18:14;;;;;;;13.75;6.05;;;;;;;1.60;100.00;100676.84;5249373;28;20029;-63
2022/01/05 08:20:46;;;;;;;15.02;7.30;;;;;;;1.66;100.00;100683.22;5249374;28;20043;-63
2022/01/05 08:23:17;;;;;;;8.90;7.28;;;;;;;1.67;100.00;100684.84;5232143;28;20025;-62
2022/01/05 08:25:50;;;;;;;7.57;6.88;;;;;;;1.65;100.00;100663.75;5232662;28;20384;-63
2022/01/05 08:28:20;;;;;;;11.05;7.57;;;;;;;1.76;100.00;100686.28;5233210;28;20436;-63
2022/01/05 08:30:51;;;;;;;9.90;6.60;;;;;;;1.79;100.00;100690.38;5234070;28;20055;-62
2022/01/05 08:33:21;;;;;;;7.93;6.70;;;;;;;1.84;100.00;100686.09;5233431;28;20032;-61
2022/01/05 08:35:54;;;;;;;9.02;6.90;;;;;;;1.87;100.00;100685.69;5234813;28;20024;-63
2022/01/05 08:38:24;;;;;;;9.00;7.47;;;;;;;1.90;100.00;100687.94;5234982;28;20032;-63
2022/01/05 08:40:55;;;;;;;11.15;7.07;;;;;;;1.84;100.00;100678.09;5234259;28;20108;-64
2022/01/05 08:43:25;;;;;;;15.43;6.82;;;;;;;1.96;100.00;100711.09;5234734;28;20027;-62
2022/01/05 08:45:56;;;;;;;13.13;7.72;;;;;;;2.06;100.00;100718.69;5234134;28;20185;-63
2022/01/05 08:48:26;;;;;;;9.25;6.18;;;;;;;2.09;100.00;100718.28;5233054;28;20395;-64
2022/01/05 08:50:57;;;;;;;14.60;6.80;;;;;;;2.09;100.00;100717.44;5250594;28;20115;-64
2022/01/05 08:53:28;;;;;;;8.25;7.28;;;;;;;2.05;100.00;100717.03;5232041;28;20025;-62
2022/01/05 08:55:58;;;;;;;24.67;6.95;;;;;;;2.10;100.00;100722.56;5249643;28;20530;-64
2022/01/05 08:58:29;;;;;;;12.70;6.60;;;;;;;2.11;100.00;100736.72;5231567;28;20116;-64
2022/01/05 09:00:59;;;;;;;6.78;6.30;;;;;;;2.11;100.00;100736.72;5231197;28;20032;-64
2022/01/05 09:03:30;;;;;;;16.17;8.20;;;;;;;2.00;100.00;100717.69;5230637;28;20115;-64
2022/01/05 09:06:03;;;;;;;11.25;7.20;;;;;;;1.96;100.00;100707.63;5230843;28;20021;-64
2022/01/05 09:08:35;;;;;;;15.55;7.72;;;;;;;2.19;100.00;100734.69;5230347;28;20024;-64
2022/01/05 09:11:08;;;;;;;14.38;7.35;;;;;;;2.23;100.00;100729.78;5230221;28;20481;-64
2022/01/05 09:13:38;;;;;;;6.88;6.18;;;;;;;1.94;100.00;100691.84;5229738;28;20029;-64
2022/01/05 09:16:09;;;;;;;12.65;6.80;;;;;;;2.20;100.00;100720.34;5230018;28;20450;-64
2022/01/05 09:18:39;;;;;;;22.42;8.23;;;;;;;2.33;100.00;100732.81;5229832;28;20027;-64
2022/01/05 09:21:10;;;;;;;6.80;6.40;;;;;;;2.20;100.00;100724.84;5229196;28;20031;-64
2022/01/05 09:23:42;;;;;;;10.13;6.97;;;;;;;2.42;100.00;100747.59;5230032;28;20476;-64
2022/01/05 09:26:12;;;;;;;12.07;6.50;;;;;;;2.32;100.00;100721.34;5229821;28;20103;-64
2022/01/05 09:28:44;;;;;;;14.32;6.60;;;;;;;2.53;100.00;100741.66;5230116;28;20388;-64
2022/01/05 09:31:14;;;;;;;20.08;7.43;;;;;;;2.62;100.00;100743.06;5229969;28;20111;-64
2022/01/05 09:33:45;;;;;;;8.93;7.43;;;;;;;2.68;100.00;100747.56;5230761;28;20033;-64
2022/01/05 09:36:19;;;;;;;10.05;7.07;;;;;;;2.58;100.00;100720.53;5231402;28;20102;-64
2022/01/05 09:44:12;;;;;;;12.20;6.07;;;;;;;2.76;100.00;100743.88;5249299;28;20062;-63
2022/01/05 09:47:14;;;;;;;16.85;6.75;;;;;;;2.75;100.00;100754.75;5232208;28;20500;-62
2022/01/05 09:50:05;;;;;;;12.25;7.78;;;;;;;2.81;100.00;100764.59;5231609;28;20032;-64
2022/01/05 09:52:42;;;;;;;8.20;7.20;;;;;;;2.86;100.00;100770.94;5231162;28;20020;-64
2022/01/05 09:55:14;;;;;;;9.68;7.63;;;;;;;2.80;100.00;100784.28;5253241;22;20485;-86
2022/01/05 09:57:46;;;;;;;8.05;7.45;;;;;;;2.86;100.00;100773.63;5234377;28;20044;-86
2022/01/05 10:00:16;;;;;;;15.32;7.60;;;;;;;2.93;100.00;100795.75;5252815;28;20103;-86
2022/01/05 10:02:49;;;;;;;17.23;9.40;;;;;;;2.89;100.00;100769.69;5234950;28;20071;-86
2022/01/05 10:05:20;;;;;;;8.73;7.85;;;;;;;2.96;100.00;100787.31;5252921;28;20020;-86
2022/01/05 10:07:50;;;;;;;13.70;8.05;;;;;;;2.90;100.00;100800.66;5253015;28;20032;-86
2022/01/05 10:10:21;;;;;;;13.98;7.45;;;;;;;2.85;100.00;100768.50;5252912;28;20386;-86
2022/01/05 10:12:51;;;;;;;18.17;6.70;;;;;;;3.02;100.00;100791.84;5253152;28;20021;-86
2022/01/05 10:15:22;;;;;;;8.43;7.47;;;;;;;3.05;100.00;100788.75;5252943;28;20582;-86
2022/01/05 10:18:14;;;;;;;29.38;8.95;;;;;;;3.32;100.00;100813.53;5252882;28;20056;-86
2022/01/05 10:21:05;;;;;;;14.02;6.85;;;;;;;3.18;100.00;100787.88;5234858;28;20024;-86
2022/01/05 10:23:45;;;;;;;9.45;5.82;;;;;;;3.68;100.00;100820.19;5252968;28;20028;-86
2022/01/05 10:26:18;;;;;;;;;;;;;;;3.79;100.00;100821.34;5253666;28;20024;-86
2022/01/05 10:28:50;;;;;;;15.98;7.85;;;;;;;3.35;100.00;100751.72;5254775;28;19915;-86
2022/01/05 10:31:29;;;;;;;11.15;7.22;;;;;;;3.76;100.00;100821.78;5253939;28;20032;-86
2022/01/05 10:34:17;;;;;;;16.83;7.22;;;;;;;3.61;100.00;100808.72;5253264;28;20060;-86
2022/01/05 10:36:51;;;;;;;21.13;8.80;;;;;;;3.30;100.00;100770.22;5236066;28;20016;-86
2022/01/05 10:39:30;;;;;;;10.15;6.18;;;;;;;3.63;100.00;100822.66;5253106;28;20032;-86
2022/01/05 10:42:14;;;;;;;7.05;5.88;;;;;;;3.21;100.00;100775.97;5252134;28;20020;-85
2022/01/05 10:44:50;;;;;;;12.63;7.80;;;;;;;3.62;100.00;100837.06;5253394;28;20078;-86
2022/01/05 10:47:21;;;;;;;14.00;7.68;;;;;;;3.63;100.00;100834.16;5253334;28;20017;-86
2022/01/05 10:49:52;;;;;;;8.65;7.00;;;;;;;3.51;100.00;100813.66;5253677;28;20038;-85
2022/01/05 10:52:26;;;;;;;16.05;8.00;;;;;;;3.81;100.00;100852.16;5236390;28;20055;-85
2022/01/05 10:55:14;;;;;;;12.23;7.68;;;;;;;3.68;100.00;100817.53;5252519;28;20063;-85
2022/01/05 10:58:02;;;;;;;6.40;5.60;;;;;;;3.98;100.00;100860.53;5233288;28;20028;-85
2022/01/05 11:00:52;;;;;;;7.63;5.80;;;;;;;3.95;100.00;100843.06;5252046;28;20027;-86
2022/01/05 11:03:30;;;;;;;14.55;6.53;;;;;;;3.88;100.00;100804.88;5252770;28;20024;-85
2022/01/05 11:06:16;;;;;;;17.20;7.60;;;;;;;3.88;100.00;100788.84;5252927;28;20074;-85
2022/01/05 11:08:56;;;;;;;6.82;5.43;;;;;;;4.40;100.00;100861.72;5234248;28;20035;-85
2022/01/05 11:11:28;;;;;;;16.20;5.30;;;;;;;4.47;100.00;100873.22;5234276;28;20048;-85
2022/01/05 11:13:58;;;;;;;9.00;4.65;;;;;;;4.07;100.00;100803.94;5254522;28;20047;-85
2022/01/05 11:16:30;;;;;;;14.00;5.07;;;;;;;4.57;100.00;100873.56;5246196;28;20021;-85
2022/01/05 11:19:25;;;;;;;17.00;5.55;;;;;;;4.61;100.00;100869.44;5231138;28;20036;-85
2022/01/05 11:21:55;;;;;;;6.13;5.55;;;;;;;4.72;100.00;100884.75;5212358;28;20029;-85
2022/01/05 11:24:27;;;;;;;10.30;4.28;;;;;;;4.84;100.00;100868.03;5229771;28;20028;-86
2022/01/05 11:26:58;;;;;;;16.45;5.53;;;;;;;4.94;100.00;100879.84;5229830;28;20021;-85
2022/01/05 11:29:29;;;;;;;6.88;5.00;;;;;;;4.92;100.00;100881.94;5229584;28;20391;-85
2022/01/05 11:32:01;;;;;;;10.38;4.47;;;;;;;4.96;100.00;100879.63;5229716;28;20487;-85
2022/01/05 11:34:33;;;;;;;7.57;5.30;;;;;;;4.58;100.00;100837.75;5228542;28;20028;-85
2022/01/05 11:37:05;;;;;;;10.02;4.38;;;;;;;4.87;100.00;100889.00;5211132;28;20094;-85
2022/01/05 11:39:45;;;;;;;6.43;3.92;;;;;;;4.91;100.00;100890.19;5228855;28;20026;-84
2022/01/05 11:42:23;;;;;;;13.25;6.40;;;;;;;5.08;100.00;100897.47;5212275;28;20021;-85